createdAt,value
2018-11-26T00:00:47.623Z,88.80
2018-11-26T00:03:16.819Z,70.37
2018-11-26T00:05:45.882Z,58.73
2018-11-26T00:08:14.924Z,60.77
2018-11-26T00:11:06.798Z,49.07
2018-11-26T00:13:35.774Z,63.00
2018-11-26T00:16:05.014Z,105.53
2018-11-26T00:18:34.423Z,67.53
2018-11-26T00:21:03.466Z,87.80
2018-11-26T00:23:32.491Z,70.63
2018-11-26T00:26:01.827Z,101.67
2018-11-26T00:28:31.076Z,81.03
2018-11-26T00:31:00.264Z,74.87
2018-11-26T00:33:31.112Z,80.50
2018-11-26T00:36:00.236Z,72.27
2018-11-26T00:38:29.641Z,77.03
2018-11-26T00:40:59.006Z,55.47
2018-11-26T00:43:27.913Z,63.03
2018-11-26T00:45:57.043Z,63.57
2018-11-26T00:48:26.430Z,65.03
2018-11-26T00:50:55.424Z,73.97
2018-11-26T00:53:24.411Z,62.97
2018-11-26T00:55:53.435Z,74.07
2018-11-26T00:58:22.737Z,60.87
2018-11-26T01:00:51.684Z,96.03
2018-11-26T01:03:20.856Z,74.77
2018-11-26T01:05:49.841Z,82.13
2018-11-26T01:08:19.266Z,66.47
2018-11-26T01:10:48.243Z,66.37
2018-11-26T01:13:17.611Z,54.13
2018-11-26T01:15:46.657Z,78.90
2018-11-26T01:18:15.875Z,70.57
2018-11-26T01:20:45.433Z,62.97
2018-11-26T01:23:14.456Z,67.83
2018-11-26T01:25:45.675Z,79.43
2018-11-26T01:28:15.020Z,76.10
2018-11-26T01:30:44.156Z,75.63
2018-11-26T01:33:13.267Z,55.73
2018-11-26T01:35:42.847Z,52.07
2018-11-26T01:38:13.436Z,63.37
2018-11-26T01:40:48.841Z,75.07
2018-11-26T01:43:18.405Z,81.30
2018-11-26T01:45:47.721Z,94.40
2018-11-26T01:48:17.232Z,68.40
2018-11-26T01:50:46.382Z,64.43
2018-11-26T01:53:15.450Z,73.50
2018-11-26T01:55:44.510Z,83.20
2018-11-26T01:58:13.938Z,82.33
2018-11-26T02:00:44.305Z,69.40
2018-11-26T02:03:13.418Z,60.03
2018-11-26T02:05:42.415Z,63.17
2018-11-26T02:08:11.870Z,59.80
2018-11-26T02:10:40.930Z,62.27
2018-11-26T02:13:09.925Z,97.67
2018-11-26T02:15:40.968Z,75.33
2018-11-26T02:18:10.493Z,65.00
2018-11-26T02:20:39.475Z,72.30
2018-11-26T02:23:08.694Z,63.20
2018-11-26T02:25:37.673Z,70.40
2018-11-26T02:28:07.536Z,62.27
2018-11-26T02:30:37.090Z,78.63
2018-11-26T02:33:06.141Z,57.17
2018-11-26T02:35:35.369Z,69.63
2018-11-26T02:38:04.611Z,65.13
2018-11-26T02:40:34.123Z,61.57
2018-11-26T02:43:03.212Z,71.33
2018-11-26T02:45:32.335Z,42.87
2018-11-26T02:48:01.496Z,49.13
2018-11-26T02:50:31.479Z,55.13
2018-11-26T02:53:00.580Z,73.80
2018-11-26T02:55:29.703Z,49.77
2018-11-26T02:57:59.031Z,84.73
2018-11-26T03:00:27.997Z,75.83
2018-11-26T03:02:56.944Z,63.60
2018-11-26T03:05:27.663Z,42.77
2018-11-26T03:07:56.594Z,82.50
2018-11-26T03:10:25.629Z,63.70
2018-11-26T03:12:54.638Z,60.87
2018-11-26T03:15:24.768Z,55.60
2018-11-26T03:17:53.738Z,57.87
2018-11-26T03:20:22.645Z,93.63
2018-11-26T03:22:51.965Z,68.63
2018-11-26T03:25:21.611Z,98.03
2018-11-26T03:27:51.203Z,65.73
2018-11-26T03:30:21.893Z,49.47
2018-11-26T03:32:50.922Z,72.47
2018-11-26T03:35:20.385Z,46.20
2018-11-26T03:37:49.473Z,73.33
2018-11-26T03:40:18.341Z,56.13
2018-11-26T03:42:47.340Z,74.73
2018-11-26T03:45:18.684Z,47.33
2018-11-26T03:47:48.172Z,65.70
2018-11-26T03:50:17.931Z,48.70
2018-11-26T03:52:47.509Z,48.73
2018-11-26T03:55:16.759Z,58.77
2018-11-26T03:57:46.852Z,62.33
2018-11-26T04:00:17.113Z,36.20
2018-11-26T04:02:46.242Z,63.33
2018-11-26T04:05:15.644Z,57.87
2018-11-26T04:07:44.775Z,71.70
2018-11-26T04:10:14.415Z,70.00
2018-11-26T04:12:43.454Z,46.10
2018-11-26T04:15:14.842Z,61.80
2018-11-26T04:17:43.881Z,58.50
2018-11-26T04:20:12.935Z,63.30
2018-11-26T04:22:45.942Z,80.87
2018-11-26T04:25:15.040Z,68.40
2018-11-26T04:27:44.077Z,70.17
2018-11-26T04:30:13.466Z,69.83
2018-11-26T04:32:42.614Z,53.70
2018-11-26T04:35:11.739Z,63.83
2018-11-26T04:37:42.285Z,46.23
2018-11-26T04:40:11.849Z,58.83
2018-11-26T04:42:40.941Z,53.70
2018-11-26T04:45:11.758Z,57.37
2018-11-26T04:47:40.887Z,53.07
2018-11-26T04:50:11.410Z,85.07
2018-11-26T04:52:40.647Z,71.30
2018-11-26T04:55:10.955Z,75.17
2018-11-26T04:57:42.611Z,80.80
2018-11-26T05:00:16.011Z,61.93
2018-11-26T05:02:45.108Z,55.17
2018-11-26T05:05:15.292Z,70.27
2018-11-26T05:07:44.494Z,70.17
2018-11-26T05:10:14.831Z,60.03
2018-11-26T05:12:44.613Z,65.07
2018-11-26T05:15:14.311Z,47.83
2018-11-26T05:17:43.541Z,54.70
2018-11-26T05:20:14.371Z,51.97
2018-11-26T05:22:43.452Z,61.60
2018-11-26T05:25:13.785Z,50.17
2018-11-26T05:27:43.177Z,60.90
2018-11-26T05:30:13.502Z,64.93
2018-11-26T05:32:42.779Z,49.90
2018-11-26T05:35:13.280Z,62.17
2018-11-26T05:37:42.296Z,62.57
2018-11-26T05:40:13.604Z,64.50
2018-11-26T05:42:43.738Z,60.00
2018-11-26T05:45:14.280Z,49.63
2018-11-26T05:47:43.295Z,56.47
2018-11-26T05:50:13.354Z,61.97
2018-11-26T05:52:42.443Z,49.37
2018-11-26T05:55:15.543Z,63.37
2018-11-26T05:57:45.196Z,58.70
2018-11-26T06:00:16.315Z,72.33
2018-11-26T06:02:45.441Z,65.57
2018-11-26T06:05:14.767Z,73.83
2018-11-26T06:07:43.870Z,61.77
2018-11-26T06:10:12.954Z,66.40
2018-11-26T06:12:41.982Z,55.23
2018-11-26T06:15:12.936Z,67.53
2018-11-26T06:17:41.942Z,61.87
2018-11-26T06:20:12.739Z,56.87
2018-11-26T06:22:43.010Z,57.03
2018-11-26T06:25:18.798Z,61.37
2018-11-26T06:27:47.881Z,96.03
2018-11-26T06:30:18.182Z,74.37
2018-11-26T06:32:47.424Z,70.03
2018-11-26T06:35:23.728Z,75.60
2018-11-26T06:37:52.806Z,61.83
2018-11-26T06:40:21.954Z,72.60
2018-11-26T06:42:51.032Z,56.83
2018-11-26T06:45:22.780Z,78.37
2018-11-26T06:47:52.076Z,59.23
2018-11-26T06:50:21.825Z,70.47
2018-11-26T06:52:51.851Z,63.43
2018-11-26T06:55:21.750Z,60.70
2018-11-26T06:57:51.028Z,64.00
2018-11-26T07:00:21.390Z,80.67
2018-11-26T07:02:51.089Z,66.30
2018-11-26T07:05:21.615Z,81.33
2018-11-26T07:07:50.801Z,80.77
2018-11-26T07:10:20.718Z,68.70
2018-11-26T07:12:50.567Z,82.50
2018-11-26T07:15:22.764Z,105.03
2018-11-26T07:17:52.128Z,84.37
2018-11-26T07:20:22.188Z,86.33
2018-11-26T07:22:51.808Z,88.10
2018-11-26T07:25:22.416Z,74.90
2018-11-26T07:27:53.904Z,89.70
2018-11-26T07:30:25.043Z,71.77
2018-11-26T07:32:53.982Z,87.50
2018-11-26T07:35:23.999Z,77.73
2018-11-26T07:37:53.258Z,78.37
2018-11-26T07:40:23.432Z,81.23
2018-11-26T07:43:25.095Z,85.40
2018-11-26T07:45:54.162Z,67.80
2018-11-26T07:48:23.868Z,67.80
2018-11-26T07:50:53.656Z,73.87
2018-11-26T07:53:22.772Z,80.27
2018-11-26T07:55:52.467Z,73.00
2018-11-26T07:58:22.247Z,103.50
2018-11-26T08:00:51.645Z,104.30
2018-11-26T08:03:20.672Z,90.37
2018-11-26T08:05:49.757Z,120.47
2018-11-26T08:08:19.654Z,83.77
2018-11-26T08:10:49.196Z,95.27
2018-11-26T08:13:27.538Z,108.83
2018-11-26T08:15:56.783Z,99.63
2018-11-26T08:18:25.824Z,122.80
2018-11-26T08:20:55.473Z,79.30
2018-11-26T08:23:24.407Z,107.67
2018-11-26T08:25:53.862Z,110.07
2018-11-26T08:28:22.781Z,105.17
2018-11-26T08:30:52.078Z,123.10
2018-11-26T08:33:21.060Z,99.27
2018-11-26T08:35:50.317Z,105.63
2018-11-26T08:38:24.258Z,96.20
2018-11-26T08:40:58.391Z,98.47
2018-11-26T08:44:34.570Z,74.73
2018-11-26T08:47:08.739Z,95.63
2018-11-26T08:49:38.468Z,135.20
2018-11-26T08:52:08.341Z,125.30
2018-11-26T08:54:37.671Z,100.03
2018-11-26T08:57:07.087Z,103.00
2018-11-26T08:59:36.051Z,110.73
2018-11-26T09:02:09.521Z,105.90
2018-11-26T09:04:53.408Z,83.67
2018-11-26T09:07:22.499Z,91.27
2018-11-26T09:09:51.513Z,79.33
2018-11-26T09:12:20.545Z,111.63
2018-11-26T09:14:50.010Z,88.33
2018-11-26T09:17:19.019Z,128.13
2018-11-26T09:19:48.254Z,115.30
2018-11-26T09:22:17.378Z,82.70
2018-11-26T09:24:46.554Z,110.33
2018-11-26T09:27:16.454Z,90.20
2018-11-26T09:29:45.702Z,121.70
2018-11-26T09:32:19.160Z,116.57
2018-11-26T09:34:48.571Z,86.63
2018-11-26T09:37:17.632Z,91.27
2018-11-26T09:39:47.000Z,95.37
2018-11-26T09:42:16.467Z,94.73
2018-11-26T09:44:47.516Z,77.57
2018-11-26T09:47:16.666Z,108.07
2018-11-26T09:49:45.794Z,104.00
2018-11-26T09:52:14.843Z,75.30
2018-11-26T09:54:43.739Z,96.27
2018-11-26T09:57:13.483Z,81.80
2018-11-26T09:59:42.744Z,84.43
2018-11-26T10:02:12.160Z,90.07
2018-11-26T10:04:44.775Z,83.23
2018-11-26T10:07:14.199Z,81.53
2018-11-26T10:09:43.726Z,84.17
2018-11-26T10:12:12.724Z,69.80
2018-11-26T10:14:41.783Z,70.27
2018-11-26T10:17:11.119Z,76.60
2018-11-26T10:19:40.115Z,69.77
2018-11-26T10:22:09.126Z,98.57
2018-11-26T10:24:38.135Z,97.70
2018-11-26T10:27:08.514Z,64.70
2018-11-26T10:29:37.511Z,71.23
2018-11-26T10:32:06.896Z,87.10
2018-11-26T10:34:35.956Z,77.17
2018-11-26T10:37:05.454Z,90.03
2018-11-26T10:39:34.504Z,70.33
2018-11-26T10:42:03.573Z,70.83
2018-11-26T10:44:36.210Z,86.10
2018-11-26T10:47:05.316Z,75.03
2018-11-26T10:49:34.356Z,67.30
2018-11-26T10:52:03.444Z,79.33
2018-11-26T10:54:43.914Z,70.23
2018-11-26T10:57:13.132Z,65.47
2018-11-26T10:59:42.184Z,55.90
2018-11-26T11:02:42.286Z,76.97
2018-11-26T11:05:17.021Z,64.70
2018-11-26T11:07:46.092Z,71.00
2018-11-26T11:10:17.320Z,52.00
2018-11-26T11:12:46.314Z,72.33
2018-11-26T11:15:24.127Z,64.50
2018-11-26T11:17:54.416Z,70.43
2018-11-26T11:20:25.129Z,64.20
2018-11-26T11:22:59.101Z,53.50
2018-11-26T11:25:35.250Z,63.53
2018-11-26T11:28:05.273Z,45.03
2018-11-26T11:30:34.696Z,46.03
2018-11-26T11:35:32.324Z,55.97
2018-11-26T11:38:01.375Z,60.77
2018-11-26T11:40:31.396Z,67.70
2018-11-26T11:43:01.109Z,63.87
2018-11-26T11:45:31.317Z,77.67
2018-11-26T11:48:00.816Z,60.07
2018-11-26T11:50:29.938Z,68.80
2018-11-26T11:52:59.353Z,59.73
2018-11-26T11:55:28.484Z,61.73
2018-11-26T11:57:57.884Z,57.67
2018-11-26T12:00:36.585Z,53.67
2018-11-26T12:03:09.749Z,54.37
2018-11-26T12:05:38.848Z,67.23
2018-11-26T12:08:08.938Z,54.80
2018-11-26T12:10:38.083Z,60.17
2018-11-26T12:13:08.686Z,55.60
2018-11-26T12:15:39.109Z,59.77
2018-11-26T12:18:08.756Z,62.90
2018-11-26T12:20:38.176Z,63.80
2018-11-26T12:23:07.331Z,67.77
2018-11-26T12:25:41.624Z,65.43
2018-11-26T12:28:10.910Z,56.30
2018-11-26T12:30:43.124Z,58.73
2018-11-26T12:33:12.529Z,48.33
2018-11-26T12:35:42.473Z,59.57
2018-11-26T12:38:11.516Z,67.53
2018-11-26T12:40:40.533Z,59.27
2018-11-26T12:43:09.812Z,63.30
2018-11-26T12:45:38.774Z,77.33
2018-11-26T12:48:07.833Z,69.37
2018-11-26T12:50:37.013Z,48.23
2018-11-26T12:53:06.389Z,73.67
2018-11-26T12:55:37.598Z,60.60
2018-11-26T12:58:07.997Z,52.80
2018-11-26T13:00:38.058Z,65.43
2018-11-26T13:03:08.860Z,62.73
2018-11-26T13:05:38.219Z,68.90
2018-11-26T13:08:07.995Z,59.37
2018-11-26T13:10:37.365Z,54.17
2018-11-26T13:13:07.761Z,68.23
2018-11-26T13:15:36.751Z,71.13
2018-11-26T13:18:06.301Z,46.93
2018-11-26T13:20:35.441Z,50.10
2018-11-26T13:23:04.519Z,58.23
2018-11-26T13:25:35.217Z,59.10
2018-11-26T13:28:04.905Z,56.70
2018-11-26T13:30:43.194Z,43.20
2018-11-26T13:33:13.923Z,68.57
2018-11-26T13:35:50.702Z,46.40
2018-11-26T13:38:20.111Z,60.63
2018-11-26T13:40:49.155Z,48.73
2018-11-26T13:43:18.697Z,54.13
2018-11-26T13:45:56.585Z,50.50
2018-11-26T13:48:25.638Z,55.40
2018-11-26T13:50:56.785Z,55.07
2018-11-26T13:53:25.947Z,42.60
2018-11-26T13:56:02.891Z,59.27
2018-11-26T13:58:31.977Z,48.17
2018-11-26T14:01:01.129Z,45.77
2018-11-26T14:03:30.286Z,49.07
2018-11-26T14:06:00.532Z,59.97
2018-11-26T14:08:29.534Z,47.00
2018-11-26T14:10:58.711Z,65.57
2018-11-26T14:13:27.938Z,64.83
2018-11-26T14:16:04.547Z,51.30
2018-11-26T14:18:33.789Z,78.67
2018-11-26T14:21:03.290Z,71.43
2018-11-26T14:23:32.345Z,38.97
2018-11-26T14:26:19.375Z,49.97
2018-11-26T14:28:48.365Z,36.23
2018-11-26T14:31:17.514Z,47.57
2018-11-26T14:33:46.584Z,40.37
2018-11-26T14:36:49.562Z,45.97
2018-11-26T14:39:19.150Z,47.17
2018-11-26T14:41:48.561Z,45.80
2018-11-26T14:44:17.801Z,28.50
2018-11-26T14:46:49.185Z,47.10
2018-11-26T14:49:18.193Z,43.43
2018-11-26T14:51:47.301Z,37.93
2018-11-26T14:54:16.257Z,50.80
2018-11-26T14:56:45.479Z,41.00
2018-11-26T14:59:14.711Z,46.40
2018-11-26T15:01:43.869Z,31.70
2018-11-26T15:04:12.986Z,49.50
2018-11-26T15:06:47.703Z,50.23
2018-11-26T15:09:16.708Z,34.57
2018-11-26T15:11:45.747Z,37.60
2018-11-26T15:14:14.930Z,27.07
2018-11-26T15:17:09.897Z,35.03
2018-11-26T15:19:39.062Z,44.93
2018-11-26T15:22:08.249Z,40.37
2018-11-26T15:24:37.325Z,50.70
2018-11-26T15:27:06.591Z,32.33
2018-11-26T15:29:35.762Z,49.93
2018-11-26T15:32:04.856Z,29.93
2018-11-26T15:34:34.024Z,42.37
2018-11-26T15:37:10.933Z,48.30
2018-11-26T15:39:40.049Z,39.47
2018-11-26T15:42:09.281Z,36.70
2018-11-26T15:44:38.380Z,62.93
2018-11-26T15:47:07.647Z,36.30
2018-11-26T15:49:37.148Z,48.47
2018-11-26T15:52:06.641Z,55.27
2018-11-26T15:54:35.924Z,39.80
2018-11-26T15:57:07.892Z,50.50
2018-11-26T15:59:37.040Z,55.20
2018-11-26T16:02:06.456Z,42.03
2018-11-26T16:04:35.505Z,34.97
2018-11-26T16:07:12.046Z,42.87
2018-11-26T16:09:41.179Z,38.70
2018-11-26T16:12:11.326Z,37.13
2018-11-26T16:14:39.672Z,48.87
2018-11-26T16:17:08.717Z,42.33
2018-11-26T16:19:38.006Z,29.70
2018-11-26T16:22:07.707Z,50.03
2018-11-26T16:24:36.737Z,38.53
2018-11-26T16:27:06.355Z,41.37
2018-11-26T16:29:38.299Z,32.97
2018-11-26T16:32:07.402Z,43.03
2018-11-26T16:34:36.455Z,35.83
2018-11-26T16:37:07.193Z,40.27
2018-11-26T16:39:36.598Z,49.00
2018-11-26T16:42:05.761Z,40.53
2018-11-26T16:44:35.038Z,30.27
2018-11-26T16:47:04.888Z,31.47
2018-11-26T16:49:33.985Z,43.67
2018-11-26T16:52:03.955Z,40.03
2018-11-26T16:54:33.142Z,36.50
2018-11-26T16:57:02.273Z,32.13
2018-11-26T16:59:31.402Z,45.70
2018-11-26T17:02:00.641Z,47.53
2018-11-26T17:04:29.664Z,39.10
2018-11-26T17:06:58.673Z,49.03
2018-11-26T17:09:27.797Z,47.93
2018-11-26T17:11:56.856Z,47.47
2018-11-26T17:14:25.957Z,42.13
2018-11-26T17:16:55.058Z,46.30
2018-11-26T17:19:24.246Z,42.33
2018-11-26T17:21:53.293Z,49.40
2018-11-26T17:24:22.433Z,56.83
2018-11-26T17:26:51.503Z,51.77
2018-11-26T17:29:20.795Z,49.27
2018-11-26T17:31:49.977Z,72.23
2018-11-26T17:34:19.287Z,78.00
2018-11-26T17:36:48.995Z,79.83
2018-11-26T17:39:18.134Z,58.63
2018-11-26T17:41:47.509Z,56.10
2018-11-26T17:44:16.917Z,55.60
2018-11-26T17:46:45.941Z,69.90
2018-11-26T17:49:14.952Z,65.10
2018-11-26T17:51:44.685Z,71.83
2018-11-26T17:54:13.805Z,56.53
2018-11-26T17:56:43.678Z,45.63
2018-11-26T17:59:12.908Z,61.20
2018-11-26T18:01:44.382Z,71.37
2018-11-26T18:04:13.671Z,54.07
2018-11-26T18:06:47.468Z,54.73
2018-11-26T18:09:13.342Z,100.20
2018-11-26T18:11:42.398Z,52.37
2018-11-26T18:14:12.108Z,64.60
2018-11-26T18:16:41.229Z,53.40
2018-11-26T18:19:10.358Z,56.77
2018-11-26T18:21:39.605Z,53.57
2018-11-26T18:24:08.588Z,53.70
2018-11-26T18:26:38.113Z,56.10
2018-11-26T18:29:08.277Z,53.67
2018-11-26T18:31:37.302Z,90.97
2018-11-26T18:34:08.050Z,62.57
2018-11-26T18:36:37.494Z,73.40
2018-11-26T18:39:09.991Z,58.70
2018-11-26T18:41:39.186Z,50.90
2018-11-26T18:44:08.437Z,60.00
2018-11-26T18:46:37.550Z,48.27
2018-11-26T18:49:06.741Z,55.03
2018-11-26T18:51:36.211Z,60.33
2018-11-26T18:54:05.377Z,68.33
2018-11-26T18:56:34.478Z,50.13
2018-11-26T18:59:03.610Z,54.60
2018-11-26T19:01:32.667Z,53.33
2018-11-26T19:04:02.089Z,64.13
2018-11-26T19:06:31.394Z,60.80
2018-11-26T19:09:00.938Z,53.13
2018-11-26T19:11:30.073Z,49.57
2018-11-26T19:14:09.962Z,49.30
2018-11-26T19:16:41.973Z,51.10
2018-11-26T19:19:11.059Z,59.67
2018-11-26T19:21:40.301Z,50.77
2018-11-26T19:24:10.491Z,56.40
2018-11-26T19:26:39.801Z,64.90
2018-11-26T19:29:08.965Z,66.83
2018-11-26T19:31:38.044Z,56.83
2018-11-26T19:34:07.375Z,53.53
2018-11-26T19:36:36.686Z,48.50
2018-11-26T19:39:08.969Z,52.03
2018-11-26T19:41:38.772Z,83.07
2018-11-26T19:44:08.129Z,57.83
2018-11-26T19:46:37.625Z,47.53
2018-11-26T19:49:08.215Z,64.20
2018-11-26T19:51:37.841Z,61.13
2018-11-26T19:54:07.219Z,58.47
2018-11-26T19:56:37.603Z,63.13
2018-11-26T19:59:07.293Z,53.97
2018-11-26T20:01:36.559Z,51.37
2018-11-26T20:04:19.373Z,61.23
2018-11-26T20:06:48.562Z,52.00
2018-11-26T20:09:17.813Z,45.83
2018-11-26T20:11:47.162Z,54.80
2018-11-26T20:14:21.291Z,47.07
2018-11-26T20:16:46.251Z,58.90
2018-11-26T20:19:15.298Z,50.03
2018-11-26T20:21:44.554Z,68.70
2018-11-26T20:24:13.735Z,63.47
2018-11-26T20:26:43.266Z,61.07
2018-11-26T20:29:12.629Z,58.13
2018-11-26T20:31:41.874Z,55.60
2018-11-26T20:34:11.033Z,63.47
2018-11-26T20:36:40.238Z,57.03
2018-11-26T20:39:10.403Z,53.07
2018-11-26T20:41:39.919Z,62.17
2018-11-26T20:44:09.729Z,57.93
2018-11-26T20:46:39.057Z,49.93
2018-11-26T20:49:09.275Z,68.70
2018-11-26T20:51:38.351Z,60.50
2018-11-26T20:54:07.344Z,45.57
2018-11-26T20:56:36.461Z,68.70
2018-11-26T20:59:05.634Z,70.07
2018-11-26T21:01:35.367Z,56.97
2018-11-26T21:04:04.583Z,58.10
2018-11-26T21:06:33.630Z,61.47
2018-11-26T21:09:02.811Z,65.67
2018-11-26T21:11:31.805Z,63.20
2018-11-26T21:14:00.865Z,64.57
2018-11-26T21:16:30.253Z,50.70
2018-11-26T21:18:59.311Z,57.23
2018-11-26T21:21:28.565Z,56.83
2018-11-26T21:23:57.733Z,43.73
2018-11-26T21:26:26.851Z,70.90
2018-11-26T21:28:56.048Z,70.30
2018-11-26T21:31:25.090Z,48.67
2018-11-26T21:33:54.209Z,58.93
2018-11-26T21:36:23.312Z,53.70
2018-11-26T21:38:52.765Z,56.47
2018-11-26T21:41:22.085Z,63.33
2018-11-26T21:43:51.428Z,56.20
2018-11-26T21:46:20.461Z,44.43
2018-11-26T21:48:49.673Z,68.10
2018-11-26T21:51:18.945Z,68.97
2018-11-26T21:53:48.217Z,51.53
2018-11-26T21:56:17.232Z,45.43
2018-11-26T21:58:46.349Z,56.17
2018-11-26T22:01:15.397Z,65.23
2018-11-26T22:03:44.517Z,46.13
2018-11-26T22:06:14.203Z,48.13
2018-11-26T22:08:43.279Z,57.10
2018-11-26T22:11:12.397Z,57.57
2018-11-26T22:13:41.553Z,64.03
2018-11-26T22:16:11.335Z,64.90
2018-11-26T22:18:40.378Z,73.80
2018-11-26T22:21:09.859Z,54.30
2018-11-26T22:23:39.249Z,67.30
2018-11-26T22:26:08.366Z,61.23
2018-11-26T22:28:37.780Z,44.17
2018-11-26T22:31:07.101Z,74.53
2018-11-26T22:33:36.277Z,58.63
2018-11-26T22:36:05.469Z,55.97
2018-11-26T22:38:34.613Z,55.40
2018-11-26T22:41:04.157Z,57.00
2018-11-26T22:43:33.273Z,65.97
2018-11-26T22:46:02.417Z,65.97
2018-11-26T22:48:31.464Z,80.17
2018-11-26T22:51:00.513Z,79.33
2018-11-26T22:53:29.735Z,58.17
2018-11-26T22:55:58.976Z,58.50
2018-11-26T22:58:28.896Z,49.37
2018-11-26T23:00:58.475Z,51.93
2018-11-26T23:03:28.901Z,60.57
2018-11-26T23:05:57.965Z,61.67
2018-11-26T23:08:27.090Z,80.87
2018-11-26T23:10:56.218Z,62.63
2018-11-26T23:13:25.350Z,60.90
2018-11-26T23:15:54.850Z,66.73
2018-11-26T23:18:23.997Z,71.67
2018-11-26T23:20:53.062Z,70.17
2018-11-26T23:23:22.281Z,55.43
2018-11-26T23:25:51.425Z,54.70
2018-11-26T23:28:20.525Z,70.47
2018-11-26T23:30:50.061Z,62.67
2018-11-26T23:33:19.213Z,66.90
2018-11-26T23:35:48.577Z,86.13
2018-11-26T23:38:17.737Z,62.93
2018-11-26T23:40:46.918Z,58.30
2018-11-26T23:43:16.055Z,69.40
2018-11-26T23:45:45.245Z,68.10
2018-11-26T23:48:14.794Z,73.67
2018-11-26T23:50:43.878Z,66.80
2018-11-26T23:53:12.928Z,74.57
2018-11-26T23:55:42.464Z,64.33
2018-11-26T23:58:11.874Z,68.60
